Terminal Aerodrome Forecast
Issued by NWS

Current Version | Previous Version | Text Only | Print | Product List | Glossary On
Versions: 1 2 3 4 5 6 7 8 9 10 11 12 13 14 15 16 17 18 19 20 21
677
FTUS42 KTAE 291737
TAFVLD
TAF
KVLD 291737Z 2918/3018 18004KT P6SM BKN040
     FM300000 20003KT P6SM SCT250
     FM300800 00000KT 3SM BR SCT003
     FM301400 15006KT P6SM SCT040=

USA.gov is the U.S. government's official web portal to all federal, state and local government web resources and services.